createdAt,value
2018-11-03T00:01:23.054Z,7.97
2018-11-03T00:03:53.283Z,8.57
2018-11-03T00:06:23.495Z,7.17
2018-11-03T00:08:53.725Z,9.97
2018-11-03T00:11:23.927Z,9.90
2018-11-03T00:13:54.135Z,9.13
2018-11-03T00:16:24.326Z,13.60
2018-11-03T00:18:54.535Z,13.50
2018-11-03T00:21:24.772Z,9.90
2018-11-03T00:23:54.993Z,11.27
2018-11-03T00:26:25.196Z,11.63
2018-11-03T00:28:55.604Z,11.50
2018-11-03T00:31:25.797Z,10.07
2018-11-03T00:33:55.817Z,7.93
2018-11-03T00:36:26.062Z,12.53
2018-11-03T00:38:56.308Z,7.73
2018-11-03T00:41:26.543Z,9.23
2018-11-03T00:43:56.734Z,8.20
2018-11-03T00:46:26.956Z,9.23
2018-11-03T00:48:57.156Z,9.97
2018-11-03T00:51:27.371Z,8.60
2018-11-03T00:53:57.567Z,7.53
2018-11-03T00:56:28.115Z,11.67
2018-11-03T00:58:58.295Z,9.87
2018-11-03T01:01:28.518Z,8.23
2018-11-03T01:03:58.695Z,9.47
2018-11-03T01:06:29.388Z,8.60
2018-11-03T01:08:59.615Z,7.13
2018-11-03T01:11:29.812Z,8.70
2018-11-03T01:14:00.012Z,9.70
2018-11-03T01:16:30.202Z,7.30
2018-11-03T01:19:00.444Z,8.50
2018-11-03T01:21:30.439Z,7.53
2018-11-03T01:24:00.660Z,7.73
2018-11-03T01:26:30.852Z,9.20
2018-11-03T01:29:01.076Z,11.40
2018-11-03T01:31:31.411Z,9.07
2018-11-03T01:34:01.619Z,7.80
2018-11-03T01:36:31.855Z,10.20
2018-11-03T01:39:02.092Z,8.47
2018-11-03T01:41:32.306Z,11.23
2018-11-03T01:44:02.539Z,9.33
2018-11-03T01:46:32.759Z,8.33
2018-11-03T01:49:02.985Z,6.93
2018-11-03T01:51:33.198Z,8.23
2018-11-03T01:54:03.871Z,8.60
2018-11-03T01:56:34.071Z,9.90
2018-11-03T01:59:04.654Z,9.47
2018-11-03T02:01:34.923Z,12.53
2018-11-03T02:04:05.876Z,9.83
2018-11-03T02:06:36.105Z,6.97
2018-11-03T02:09:08.381Z,8.90
2018-11-03T02:11:38.589Z,9.07
2018-11-03T02:14:08.776Z,10.33
2018-11-03T02:16:39.327Z,10.93
2018-11-03T02:19:09.521Z,8.03
2018-11-03T02:21:40.070Z,8.50
2018-11-03T02:24:10.272Z,8.37
2018-11-03T02:26:40.503Z,6.30
2018-11-03T02:29:10.892Z,8.77
2018-11-03T02:31:41.440Z,8.70
2018-11-03T02:34:11.652Z,8.17
2018-11-03T02:36:41.867Z,7.13
2018-11-03T02:39:12.090Z,9.57
2018-11-03T02:41:42.330Z,11.27
2018-11-03T02:44:12.524Z,10.17
2018-11-03T02:46:43.058Z,9.03
2018-11-03T02:49:13.238Z,10.40
2018-11-03T02:51:43.472Z,12.10
2018-11-03T02:54:13.687Z,9.67
2018-11-03T02:56:43.907Z,13.27
2018-11-03T02:59:14.108Z,10.73
2018-11-03T03:01:44.147Z,10.93
2018-11-03T03:04:14.392Z,9.93
2018-11-03T03:06:44.750Z,7.80
2018-11-03T03:09:14.969Z,8.23
2018-11-03T03:11:45.247Z,15.20
2018-11-03T03:14:15.440Z,9.93
2018-11-03T03:16:45.668Z,10.97
2018-11-03T03:19:15.903Z,11.87
2018-11-03T03:21:46.100Z,8.37
2018-11-03T03:24:16.332Z,9.10
2018-11-03T03:26:46.530Z,13.17
2018-11-03T03:29:16.754Z,9.97
2018-11-03T03:31:46.994Z,9.17
2018-11-03T03:34:17.223Z,9.47
2018-11-03T03:36:47.436Z,9.73
2018-11-03T03:39:17.423Z,8.00
2018-11-03T03:41:47.441Z,7.27
2018-11-03T03:44:17.671Z,10.97
2018-11-03T03:46:47.896Z,9.60
2018-11-03T03:49:18.143Z,8.20
2018-11-03T03:51:48.426Z,8.67
2018-11-03T03:54:18.971Z,8.17
2018-11-03T03:56:49.159Z,10.30
2018-11-03T03:59:19.159Z,8.97
2018-11-03T04:01:49.394Z,9.67
2018-11-03T04:04:19.599Z,9.53
2018-11-03T04:06:49.789Z,8.93
2018-11-03T04:09:20.019Z,8.57
2018-11-03T04:11:50.231Z,7.67
2018-11-03T04:14:20.564Z,7.70
2018-11-03T04:16:51.009Z,7.57
2018-11-03T04:19:21.199Z,9.30
2018-11-03T04:21:51.414Z,9.20
2018-11-03T04:26:57.908Z,9.37
2018-11-03T04:29:28.140Z,7.90
2018-11-03T04:31:58.381Z,10.90
2018-11-03T04:34:28.600Z,11.27
2018-11-03T04:36:58.791Z,8.83
2018-11-03T04:39:28.999Z,7.33
2018-11-03T04:41:59.203Z,8.33
2018-11-03T04:44:29.419Z,7.70
2018-11-03T04:46:59.644Z,8.80
2018-11-03T04:49:36.440Z,7.80
2018-11-03T04:52:06.692Z,6.83
2018-11-03T04:54:36.905Z,11.00
2018-11-03T04:57:07.087Z,7.63
2018-11-03T04:59:37.304Z,8.07
2018-11-03T05:02:07.543Z,9.00
2018-11-03T05:04:37.727Z,7.77
2018-11-03T05:07:07.964Z,8.73
2018-11-03T05:09:38.165Z,7.80
2018-11-03T05:12:08.391Z,7.90
2018-11-03T05:14:38.615Z,7.63
2018-11-03T05:17:09.094Z,7.50
2018-11-03T05:19:39.293Z,7.27
2018-11-03T05:22:09.664Z,10.13
2018-11-03T05:24:39.675Z,8.20
2018-11-03T05:27:09.893Z,10.57
2018-11-03T05:29:40.071Z,7.87
2018-11-03T05:32:10.324Z,8.50
2018-11-03T05:34:40.344Z,8.63
2018-11-03T05:37:10.538Z,7.93
2018-11-03T05:39:40.751Z,9.93
2018-11-03T05:42:10.953Z,11.97
2018-11-03T05:44:41.163Z,9.27
2018-11-03T05:47:11.565Z,8.97
2018-11-03T05:49:41.815Z,12.10
2018-11-03T05:52:12.024Z,10.30
2018-11-03T05:54:42.265Z,10.80
2018-11-03T05:57:12.452Z,12.67
2018-11-03T05:59:42.789Z,7.73
2018-11-03T06:02:13.325Z,9.43
2018-11-03T06:04:43.791Z,11.13
2018-11-03T06:07:13.981Z,9.97
2018-11-03T06:09:44.187Z,9.83
2018-11-03T06:12:14.411Z,9.47
2018-11-03T06:14:44.639Z,9.30
2018-11-03T06:17:14.621Z,11.13
2018-11-03T06:19:44.833Z,8.97
2018-11-03T06:22:15.075Z,9.03
2018-11-03T06:24:45.273Z,8.53
2018-11-03T06:27:15.480Z,8.23
2018-11-03T06:29:45.485Z,7.90
2018-11-03T06:32:15.732Z,11.07
2018-11-03T06:34:45.925Z,7.83
2018-11-03T06:37:16.191Z,8.90
2018-11-03T06:39:46.408Z,9.63
2018-11-03T06:42:16.623Z,9.77
2018-11-03T06:44:46.846Z,9.20
2018-11-03T06:47:17.393Z,9.27
2018-11-03T06:49:47.502Z,8.70
2018-11-03T06:52:17.821Z,11.30
2018-11-03T06:54:47.958Z,12.20
2018-11-03T06:57:18.158Z,9.03
2018-11-03T06:59:48.363Z,10.77
2018-11-03T07:02:18.547Z,8.70
2018-11-03T07:04:48.751Z,11.83
2018-11-03T07:07:18.955Z,11.47
2018-11-03T07:09:48.995Z,8.40
2018-11-03T07:12:19.304Z,12.17
2018-11-03T07:14:49.452Z,10.87
2018-11-03T07:17:19.472Z,10.47
2018-11-03T07:19:49.687Z,8.57
2018-11-03T07:22:19.924Z,9.10
2018-11-03T07:24:50.256Z,12.23
2018-11-03T07:27:27.026Z,12.93
2018-11-03T07:29:57.284Z,12.50
2018-11-03T07:32:27.530Z,10.23
2018-11-03T07:34:57.725Z,12.57
2018-11-03T07:37:27.951Z,11.63
2018-11-03T07:39:58.168Z,8.90
2018-11-03T07:42:28.190Z,11.47
2018-11-03T07:44:58.375Z,13.20
2018-11-03T07:47:28.395Z,12.30
2018-11-03T07:49:58.595Z,13.50
2018-11-03T07:52:28.812Z,16.50
2018-11-03T07:54:59.058Z,12.07
2018-11-03T07:57:29.268Z,11.67
2018-11-03T07:59:59.469Z,17.23
2018-11-03T08:02:29.687Z,14.53
2018-11-03T08:04:59.884Z,16.37
2018-11-03T08:07:30.459Z,14.77
2018-11-03T08:10:00.643Z,14.37
2018-11-03T08:12:30.899Z,14.57
2018-11-03T08:15:01.103Z,17.10
2018-11-03T08:17:37.977Z,15.40
2018-11-03T08:20:09.964Z,17.93
2018-11-03T08:22:40.232Z,18.60
2018-11-03T08:25:10.472Z,15.00
2018-11-03T08:27:40.666Z,16.40
2018-11-03T08:30:13.076Z,15.03
2018-11-03T08:32:43.623Z,17.50
2018-11-03T08:35:13.856Z,20.20
2018-11-03T08:37:44.060Z,17.43
2018-11-03T08:40:14.303Z,15.27
2018-11-03T08:42:44.502Z,14.60
2018-11-03T08:45:14.743Z,15.80
2018-11-03T08:47:44.945Z,17.43
2018-11-03T08:50:15.250Z,14.50
2018-11-03T08:52:45.812Z,14.70
2018-11-03T08:55:16.028Z,15.33
2018-11-03T08:57:46.259Z,16.67
2018-11-03T09:00:16.533Z,13.93
2018-11-03T09:02:46.712Z,19.03
2018-11-03T09:05:16.911Z,18.60
2018-11-03T09:07:47.165Z,19.93
2018-11-03T09:10:17.358Z,21.97
2018-11-03T09:12:47.620Z,17.93
2018-11-03T09:15:17.924Z,16.83
2018-11-03T09:17:48.054Z,20.13
2018-11-03T09:20:18.286Z,17.53
2018-11-03T09:22:48.534Z,18.03
2018-11-03T09:25:18.692Z,20.53
2018-11-03T09:27:48.921Z,19.53
2018-11-03T09:30:19.648Z,17.63
2018-11-03T09:32:49.675Z,18.80
2018-11-03T09:35:19.880Z,21.37
2018-11-03T09:37:50.108Z,18.90
2018-11-03T09:40:20.125Z,25.07
2018-11-03T09:42:50.461Z,22.50
2018-11-03T09:45:20.596Z,22.10
2018-11-03T09:47:50.895Z,20.07
2018-11-03T09:50:21.171Z,19.80
2018-11-03T09:52:51.323Z,22.70
2018-11-03T09:55:21.587Z,23.30
2018-11-03T09:57:51.804Z,21.13
2018-11-03T10:00:22.251Z,26.77
2018-11-03T10:02:52.455Z,24.00
2018-11-03T10:05:22.667Z,26.93
2018-11-03T10:07:53.235Z,23.67
2018-11-03T10:10:23.455Z,23.73
2018-11-03T10:12:54.233Z,21.47
2018-11-03T10:15:24.690Z,26.07
2018-11-03T10:17:54.918Z,26.37
2018-11-03T10:20:25.103Z,27.23
2018-11-03T10:22:55.783Z,22.67
2018-11-03T10:25:25.878Z,21.00
2018-11-03T10:27:56.438Z,22.70
2018-11-03T10:30:26.663Z,18.97
2018-11-03T10:32:56.915Z,20.30
2018-11-03T10:35:27.099Z,22.23
2018-11-03T10:37:57.307Z,22.63
2018-11-03T10:40:27.512Z,18.17
2018-11-03T10:42:57.735Z,19.53
2018-11-03T10:45:27.930Z,16.03
2018-11-03T10:47:58.161Z,16.90
2018-11-03T10:50:28.704Z,13.90
2018-11-03T10:52:58.912Z,14.50
2018-11-03T10:55:29.700Z,19.20
2018-11-03T10:58:00.459Z,18.48
2018-11-03T11:00:37.104Z,16.77
2018-11-03T11:03:13.147Z,21.17
2018-11-03T11:05:49.316Z,14.63
2018-11-03T11:08:25.487Z,15.25
2018-11-03T11:11:01.492Z,18.77
2018-11-03T11:13:34.088Z,13.65
2018-11-03T11:16:05.647Z,16.52
2018-11-03T11:18:36.392Z,14.20
2018-11-03T11:21:06.967Z,12.93
2018-11-03T11:23:37.853Z,12.58
2018-11-03T11:26:08.534Z,13.75
2018-11-03T11:28:39.115Z,11.20
2018-11-03T11:31:09.916Z,11.05
2018-11-03T11:33:40.965Z,15.20
2018-11-03T11:36:11.733Z,10.35
2018-11-03T11:38:42.575Z,12.07
2018-11-03T11:41:13.260Z,10.78
2018-11-03T11:43:50.686Z,11.45
2018-11-03T11:46:21.449Z,13.10
2018-11-03T11:48:52.285Z,12.05
2018-11-03T11:51:23.094Z,13.22
2018-11-03T11:53:53.875Z,12.80
2018-11-03T11:56:24.867Z,9.88
2018-11-03T11:58:55.658Z,9.00
2018-11-03T12:01:26.414Z,11.70
2018-11-03T12:03:57.260Z,10.82
2018-11-03T12:06:28.020Z,11.30
2018-11-03T12:08:58.831Z,10.72
2018-11-03T12:11:29.703Z,12.10
2018-11-03T12:14:00.477Z,11.10
2018-11-03T12:16:31.263Z,10.50
2018-11-03T12:19:02.016Z,12.15
2018-11-03T12:21:32.799Z,11.33
2018-11-03T12:24:03.564Z,13.18
2018-11-03T12:26:34.175Z,10.55
2018-11-03T12:29:05.399Z,11.65
2018-11-03T12:31:36.214Z,8.45
2018-11-03T12:34:13.679Z,9.33
2018-11-03T12:36:44.481Z,9.73
2018-11-03T12:39:15.287Z,9.45
2018-11-03T12:41:46.415Z,15.18
2018-11-03T12:44:17.174Z,8.50
2018-11-03T12:46:47.979Z,7.83
2018-11-03T12:49:18.747Z,11.40
2018-11-03T12:51:49.532Z,7.45
2018-11-03T12:54:20.348Z,5.80
2018-11-03T12:56:51.124Z,4.70
2018-11-03T12:59:21.961Z,7.03
2018-11-03T13:01:52.665Z,7.15
2018-11-03T13:04:23.466Z,4.42
2018-11-03T13:06:54.174Z,6.25
2018-11-03T13:09:25.040Z,5.25
2018-11-03T13:11:55.702Z,4.92
2018-11-03T13:14:26.468Z,5.22
2018-11-03T13:16:57.021Z,4.47
2018-11-03T13:19:27.644Z,4.33
2018-11-03T13:21:58.202Z,5.05
2018-11-03T13:24:28.782Z,6.92
2018-11-03T13:26:59.339Z,4.67
2018-11-03T13:29:29.910Z,3.42
2018-11-03T13:32:00.479Z,3.65
2018-11-03T13:34:31.045Z,3.37
2018-11-03T13:37:01.916Z,4.17
2018-11-03T13:39:32.540Z,5.30
2018-11-03T13:42:03.128Z,4.22
2018-11-03T13:44:33.692Z,4.65
2018-11-03T13:47:04.665Z,3.37
2018-11-03T13:49:35.432Z,4.55
2018-11-03T13:52:06.001Z,3.90
2018-11-03T13:54:36.555Z,8.13
2018-11-03T13:57:07.219Z,5.47
2018-11-03T13:59:37.879Z,3.98
2018-11-03T14:02:08.460Z,3.90
2018-11-03T14:04:39.104Z,6.08
2018-11-03T14:07:19.677Z,6.08
2018-11-03T14:10:00.628Z,6.30
2018-11-03T14:12:45.826Z,5.12
2018-11-03T14:15:26.319Z,5.42
2018-11-03T14:18:02.220Z,6.80
2018-11-03T14:20:37.027Z,6.55
2018-11-03T14:23:14.035Z,5.92
2018-11-03T14:25:49.813Z,4.40
2018-11-03T14:28:24.168Z,4.80
2018-11-03T14:30:58.521Z,7.53
2018-11-03T14:33:33.466Z,7.60
2018-11-03T14:36:05.627Z,5.55
2018-11-03T14:38:36.350Z,9.35
2018-11-03T14:41:07.281Z,6.25
2018-11-03T14:43:37.843Z,5.80
2018-11-03T14:46:08.414Z,4.80
2018-11-03T14:48:39.503Z,6.83
2018-11-03T14:51:10.134Z,5.37
2018-11-03T14:53:40.847Z,10.72
2018-11-03T14:56:11.424Z,6.25
2018-11-03T14:58:42.000Z,8.18
2018-11-03T15:01:12.590Z,5.97
2018-11-03T15:03:43.203Z,4.62
2018-11-03T15:06:13.951Z,5.10
2018-11-03T15:08:44.755Z,6.17
2018-11-03T15:11:15.308Z,6.50
2018-11-03T15:13:46.245Z,7.03
2018-11-03T15:16:16.911Z,7.00
2018-11-03T15:18:47.512Z,8.88
2018-11-03T15:21:18.063Z,29.50
2018-11-03T15:23:48.640Z,30.15
2018-11-03T15:26:19.189Z,26.42
2018-11-03T15:28:49.965Z,13.60
2018-11-03T15:31:20.739Z,10.32
2018-11-03T15:33:51.308Z,6.30
2018-11-03T15:36:21.855Z,11.25
2018-11-03T15:38:52.455Z,6.12
2018-11-03T15:41:23.090Z,9.25
2018-11-03T15:43:53.792Z,6.25
2018-11-03T15:46:24.379Z,5.92
2018-11-03T15:48:55.267Z,8.58
2018-11-03T15:51:25.831Z,5.90
2018-11-03T15:53:56.387Z,6.45
2018-11-03T15:56:27.294Z,7.70
2018-11-03T15:58:58.029Z,5.67
2018-11-03T16:01:28.578Z,6.90
2018-11-03T16:03:59.147Z,8.55
2018-11-03T16:06:29.707Z,7.45
2018-11-03T16:09:00.313Z,5.67
2018-11-03T16:11:30.844Z,6.62
2018-11-03T16:14:01.427Z,5.20
2018-11-03T16:16:32.016Z,9.43
2018-11-03T16:19:02.564Z,8.53
2018-11-03T16:21:33.411Z,8.93
2018-11-03T16:24:04.552Z,8.58
2018-11-03T16:26:35.104Z,9.88
2018-11-03T16:29:06.031Z,7.70
2018-11-03T16:31:36.610Z,9.70
2018-11-03T16:34:07.559Z,10.48
2018-11-03T16:36:38.323Z,10.35
2018-11-03T16:39:10.098Z,8.05
2018-11-03T16:41:40.651Z,7.97
2018-11-03T16:44:11.235Z,7.85
2018-11-03T16:46:41.772Z,7.97
2018-11-03T16:49:12.539Z,7.50
2018-11-03T16:51:43.115Z,10.32
2018-11-03T16:54:13.719Z,10.90
2018-11-03T16:56:45.171Z,13.48
2018-11-03T16:59:15.871Z,9.45
2018-11-03T17:01:46.451Z,8.90
2018-11-03T17:04:17.048Z,10.68
2018-11-03T17:06:47.704Z,10.72
2018-11-03T17:09:18.431Z,10.58
2018-11-03T17:11:49.000Z,14.98
2018-11-03T17:14:19.555Z,11.10
2018-11-03T17:16:50.159Z,14.85
2018-11-03T17:19:20.715Z,13.55
2018-11-03T17:21:50.735Z,12.67
2018-11-03T17:24:21.375Z,10.78
2018-11-03T17:26:52.070Z,11.68
2018-11-03T17:29:22.281Z,12.25
2018-11-03T17:31:52.850Z,10.43
2018-11-03T17:34:22.882Z,10.73
2018-11-03T17:36:52.904Z,11.87
2018-11-03T17:39:22.887Z,12.83
2018-11-03T17:41:53.110Z,12.60
2018-11-03T17:44:23.292Z,11.20
2018-11-03T17:46:53.318Z,11.07
2018-11-03T17:49:23.303Z,8.53
2018-11-03T17:51:53.316Z,10.73
2018-11-03T17:54:23.308Z,8.13
2018-11-03T17:56:53.316Z,8.00
2018-11-03T17:59:23.327Z,10.47
2018-11-03T18:01:53.355Z,15.17
2018-11-03T18:04:23.589Z,14.00
2018-11-03T18:06:53.604Z,11.23
2018-11-03T18:09:23.635Z,11.33
2018-11-03T18:11:53.640Z,11.47
2018-11-03T18:14:23.652Z,7.93
2018-11-03T18:16:53.971Z,8.27
2018-11-03T18:19:24.007Z,10.77
2018-11-03T18:21:54.003Z,9.37
2018-11-03T18:24:24.051Z,11.13
2018-11-03T18:26:54.575Z,11.13
2018-11-03T18:29:24.610Z,13.73
2018-11-03T18:31:54.611Z,11.63
2018-11-03T18:34:24.753Z,8.70
2018-11-03T18:36:55.222Z,9.80
2018-11-03T18:39:25.468Z,9.13
2018-11-03T18:41:55.474Z,9.27
2018-11-03T18:44:25.477Z,14.10
2018-11-03T18:46:55.511Z,11.30
2018-11-03T18:49:25.627Z,10.57
2018-11-03T18:51:55.674Z,12.07
2018-11-03T18:54:25.860Z,10.47
2018-11-03T18:56:55.896Z,10.70
2018-11-03T18:59:25.920Z,12.30
2018-11-03T19:01:55.919Z,10.00
2018-11-03T19:04:26.124Z,11.17
2018-11-03T19:06:56.532Z,10.53
2018-11-03T19:09:26.718Z,14.27
2018-11-03T19:11:56.763Z,14.47
2018-11-03T19:14:26.815Z,11.07
2018-11-03T19:16:56.945Z,11.73
2018-11-03T19:19:27.095Z,12.17
2018-11-03T19:21:57.268Z,20.00
2018-11-03T19:24:27.275Z,9.87
2018-11-03T19:26:57.287Z,10.83
2018-11-03T19:29:27.325Z,15.63
2018-11-03T19:31:57.563Z,12.50
2018-11-03T19:34:27.780Z,14.87
2018-11-03T19:36:59.489Z,12.80
2018-11-03T19:39:29.824Z,13.77
2018-11-03T19:41:59.846Z,13.23
2018-11-03T19:44:30.088Z,12.10
2018-11-03T19:47:00.108Z,13.37
2018-11-03T19:49:30.104Z,16.07
2018-11-03T19:52:00.153Z,13.30
2018-11-03T19:54:30.349Z,14.93
2018-11-03T19:57:00.372Z,15.77
2018-11-03T19:59:45.053Z,16.23
2018-11-03T20:02:26.798Z,16.00
2018-11-03T20:05:07.676Z,14.40
2018-11-03T20:07:55.213Z,14.97
2018-11-03T20:10:35.934Z,15.70
2018-11-03T20:13:17.924Z,16.00
2018-11-03T20:15:57.147Z,17.47
2018-11-03T20:18:31.658Z,15.37
2018-11-03T20:21:07.221Z,14.23
2018-11-03T20:23:40.559Z,14.80
2018-11-03T20:26:16.738Z,17.73
2018-11-03T20:28:51.759Z,16.40
2018-11-03T20:31:25.797Z,15.20
2018-11-03T20:33:59.590Z,16.70
2018-11-03T20:36:33.172Z,15.17
2018-11-03T20:39:08.169Z,17.30
2018-11-03T20:41:40.945Z,17.70
2018-11-03T20:44:13.586Z,20.17
2018-11-03T20:46:43.666Z,17.43
2018-11-03T20:49:14.296Z,18.53
2018-11-03T20:51:44.347Z,17.97
2018-11-03T20:54:14.371Z,18.27
2018-11-03T20:56:44.372Z,17.63
2018-11-03T20:59:14.399Z,15.10
2018-11-03T21:01:44.441Z,19.17
2018-11-03T21:04:14.631Z,18.37
2018-11-03T21:06:44.662Z,15.60
2018-11-03T21:09:14.683Z,15.17
2018-11-03T21:11:44.677Z,18.70
2018-11-03T21:14:14.705Z,15.30
2018-11-03T21:16:44.731Z,17.07
2018-11-03T21:19:14.929Z,17.27
2018-11-03T21:21:45.114Z,15.13
2018-11-03T21:24:15.172Z,15.77
2018-11-03T21:26:45.339Z,17.50
2018-11-03T21:29:15.522Z,14.70
2018-11-03T21:31:45.771Z,13.70
2018-11-03T21:34:15.964Z,17.13
2018-11-03T21:36:46.188Z,15.97
2018-11-03T21:39:22.675Z,16.67
2018-11-03T21:41:52.677Z,17.77
2018-11-03T21:44:22.708Z,15.43
2018-11-03T21:46:52.861Z,16.80
2018-11-03T21:49:22.983Z,17.00
2018-11-03T21:51:53.025Z,17.03
2018-11-03T21:54:23.027Z,18.13
2018-11-03T21:56:53.044Z,18.03
2018-11-03T21:59:23.065Z,18.50
2018-11-03T22:01:53.283Z,18.23
2018-11-03T22:04:23.496Z,15.80
2018-11-03T22:06:53.520Z,21.63
2018-11-03T22:09:23.535Z,21.30
2018-11-03T22:11:53.547Z,18.03
2018-11-03T22:14:23.572Z,18.27
2018-11-03T22:16:53.596Z,18.53
2018-11-03T22:19:23.619Z,18.93
2018-11-03T22:21:53.703Z,19.13
2018-11-03T22:24:23.863Z,19.30
2018-11-03T22:26:54.237Z,17.13
2018-11-03T22:29:24.467Z,20.47
2018-11-03T22:31:54.507Z,16.43
2018-11-03T22:34:24.508Z,17.27
2018-11-03T22:36:54.523Z,17.73
2018-11-03T22:39:24.540Z,18.33
2018-11-03T22:41:58.541Z,14.13
2018-11-03T22:44:31.979Z,15.63
2018-11-03T22:47:06.470Z,20.10
2018-11-03T22:49:40.370Z,18.67
2018-11-03T22:52:15.618Z,16.47
2018-11-03T22:54:50.949Z,16.67
2018-11-03T22:57:25.306Z,16.90
2018-11-03T22:59:57.589Z,19.80
2018-11-03T23:02:31.063Z,17.47
2018-11-03T23:05:03.883Z,19.27
2018-11-03T23:07:34.040Z,20.70
2018-11-03T23:10:04.120Z,18.47
2018-11-03T23:12:34.374Z,18.00
2018-11-03T23:15:04.656Z,15.63
2018-11-03T23:17:34.676Z,20.27
2018-11-03T23:20:06.092Z,19.57
2018-11-03T23:22:36.283Z,18.83
2018-11-03T23:25:07.153Z,18.30
2018-11-03T23:27:37.741Z,20.90
2018-11-03T23:30:10.338Z,18.97
2018-11-03T23:32:40.464Z,18.33
2018-11-03T23:35:12.555Z,16.07
2018-11-03T23:37:43.191Z,18.30
2018-11-03T23:40:13.224Z,17.83
2018-11-03T23:42:43.230Z,18.33
2018-11-03T23:45:13.259Z,16.07
2018-11-03T23:47:43.276Z,16.90
2018-11-03T23:50:14.696Z,16.77
2018-11-03T23:52:45.766Z,16.60
2018-11-03T23:55:15.847Z,21.03
2018-11-03T23:57:45.831Z,19.13
